sensor_id;sensor_type;location;lat;lon;timestamp;P1;durP1;ratioP1;P2;durP2;ratioP2
65998;SDS011;52766;56.008;37.440;2022-08-25T00:01:00;17.45;;;7.60;;
65998;SDS011;52766;56.008;37.440;2022-08-25T00:03:26;18.23;;;8.82;;
65998;SDS011;52766;56.008;37.440;2022-08-25T00:05:52;21.30;;;8.45;;
65998;SDS011;52766;56.008;37.440;2022-08-25T00:08:18;15.77;;;7.82;;
65998;SDS011;52766;56.008;37.440;2022-08-25T00:10:44;21.08;;;7.45;;
65998;SDS011;52766;56.008;37.440;2022-08-25T00:13:10;20.92;;;10.13;;
65998;SDS011;52766;56.008;37.440;2022-08-25T00:15:36;19.73;;;10.20;;
65998;SDS011;52766;56.008;37.440;2022-08-25T00:18:03;19.45;;;8.40;;
65998;SDS011;52766;56.008;37.440;2022-08-25T00:20:29;22.25;;;10.20;;
65998;SDS011;52766;56.008;37.440;2022-08-25T00:22:55;17.75;;;10.05;;
65998;SDS011;52766;56.008;37.440;2022-08-25T00:25:22;18.23;;;10.13;;
65998;SDS011;52766;56.008;37.440;2022-08-25T00:27:51;17.90;;;9.55;;
65998;SDS011;52766;56.008;37.440;2022-08-25T00:30:17;21.90;;;12.30;;
65998;SDS011;52766;56.008;37.440;2022-08-25T00:32:44;20.73;;;10.55;;
65998;SDS011;52766;56.008;37.440;2022-08-25T00:35:11;22.98;;;12.02;;
65998;SDS011;52766;56.008;37.440;2022-08-25T00:37:37;22.02;;;11.98;;
65998;SDS011;52766;56.008;37.440;2022-08-25T00:40:03;19.48;;;10.10;;
65998;SDS011;52766;56.008;37.440;2022-08-25T00:42:30;18.63;;;12.27;;
65998;SDS011;52766;56.008;37.440;2022-08-25T00:44:56;22.58;;;11.82;;
65998;SDS011;52766;56.008;37.440;2022-08-25T00:47:23;21.77;;;12.65;;
65998;SDS011;52766;56.008;37.440;2022-08-25T00:49:54;25.70;;;11.70;;
65998;SDS011;52766;56.008;37.440;2022-08-25T00:55:01;19.15;;;10.43;;
65998;SDS011;52766;56.008;37.440;2022-08-25T00:57:39;20.35;;;10.27;;
65998;SDS011;52766;56.008;37.440;2022-08-25T01:00:19;18.85;;;9.40;;
65998;SDS011;52766;56.008;37.440;2022-08-25T01:02:50;19.90;;;9.25;;
65998;SDS011;52766;56.008;37.440;2022-08-25T01:05:16;25.38;;;9.75;;
65998;SDS011;52766;56.008;37.440;2022-08-25T01:07:44;17.58;;;10.20;;
65998;SDS011;52766;56.008;37.440;2022-08-25T01:10:10;22.75;;;9.63;;
65998;SDS011;52766;56.008;37.440;2022-08-25T01:12:38;19.40;;;9.13;;
65998;SDS011;52766;56.008;37.440;2022-08-25T01:15:05;23.52;;;8.98;;
65998;SDS011;52766;56.008;37.440;2022-08-25T01:17:52;28.08;;;9.80;;
65998;SDS011;52766;56.008;37.440;2022-08-25T01:20:22;24.67;;;10.50;;
65998;SDS011;52766;56.008;37.440;2022-08-25T01:22:49;23.02;;;10.25;;
65998;SDS011;52766;56.008;37.440;2022-08-25T01:25:20;27.60;;;10.77;;
65998;SDS011;52766;56.008;37.440;2022-08-25T01:28:02;20.60;;;9.73;;
65998;SDS011;52766;56.008;37.440;2022-08-25T01:30:29;25.50;;;9.30;;
65998;SDS011;52766;56.008;37.440;2022-08-25T01:32:55;27.83;;;10.50;;
65998;SDS011;52766;56.008;37.440;2022-08-25T01:35:21;20.45;;;10.85;;
65998;SDS011;52766;56.008;37.440;2022-08-25T01:37:48;22.95;;;11.25;;
65998;SDS011;52766;56.008;37.440;2022-08-25T01:40:14;27.20;;;11.38;;
65998;SDS011;52766;56.008;37.440;2022-08-25T01:42:43;26.52;;;11.48;;
65998;SDS011;52766;56.008;37.440;2022-08-25T01:45:13;28.30;;;11.48;;
65998;SDS011;52766;56.008;37.440;2022-08-25T01:47:39;24.55;;;11.40;;
65998;SDS011;52766;56.008;37.440;2022-08-25T01:50:05;20.77;;;9.23;;
65998;SDS011;52766;56.008;37.440;2022-08-25T01:52:33;20.75;;;10.70;;
65998;SDS011;52766;56.008;37.440;2022-08-25T01:55:06;25.40;;;11.68;;
65998;SDS011;52766;56.008;37.440;2022-08-25T01:57:32;25.83;;;11.63;;
65998;SDS011;52766;56.008;37.440;2022-08-25T01:59:58;23.70;;;12.30;;
65998;SDS011;52766;56.008;37.440;2022-08-25T02:02:24;29.15;;;11.40;;
65998;SDS011;52766;56.008;37.440;2022-08-25T02:04:50;23.25;;;12.25;;
65998;SDS011;52766;56.008;37.440;2022-08-25T02:07:16;29.25;;;12.63;;
65998;SDS011;52766;56.008;37.440;2022-08-25T02:09:43;28.00;;;11.85;;
65998;SDS011;52766;56.008;37.440;2022-08-25T02:12:08;32.58;;;13.73;;
65998;SDS011;52766;56.008;37.440;2022-08-25T02:14:55;22.02;;;12.65;;
65998;SDS011;52766;56.008;37.440;2022-08-25T02:17:21;32.05;;;15.60;;
65998;SDS011;52766;56.008;37.440;2022-08-25T02:19:47;44.85;;;15.18;;
65998;SDS011;52766;56.008;37.440;2022-08-25T02:22:13;41.88;;;14.95;;
65998;SDS011;52766;56.008;37.440;2022-08-25T02:24:38;35.78;;;13.25;;
65998;SDS011;52766;56.008;37.440;2022-08-25T02:27:04;66.40;;;15.80;;
65998;SDS011;52766;56.008;37.440;2022-08-25T02:29:31;31.50;;;13.43;;
65998;SDS011;52766;56.008;37.440;2022-08-25T02:31:57;28.45;;;11.43;;
65998;SDS011;52766;56.008;37.440;2022-08-25T02:34:23;33.00;;;13.63;;
65998;SDS011;52766;56.008;37.440;2022-08-25T02:36:49;23.88;;;10.95;;
65998;SDS011;52766;56.008;37.440;2022-08-25T02:39:14;31.08;;;12.68;;
65998;SDS011;52766;56.008;37.440;2022-08-25T02:41:40;32.05;;;12.35;;
65998;SDS011;52766;56.008;37.440;2022-08-25T02:44:07;28.77;;;11.98;;
65998;SDS011;52766;56.008;37.440;2022-08-25T02:46:33;25.33;;;10.75;;
65998;SDS011;52766;56.008;37.440;2022-08-25T02:49:00;32.17;;;12.80;;
65998;SDS011;52766;56.008;37.440;2022-08-25T02:51:26;24.17;;;11.00;;
65998;SDS011;52766;56.008;37.440;2022-08-25T02:53:54;27.55;;;12.38;;
65998;SDS011;52766;56.008;37.440;2022-08-25T02:56:21;26.98;;;11.40;;
65998;SDS011;52766;56.008;37.440;2022-08-25T02:58:48;30.02;;;11.15;;
65998;SDS011;52766;56.008;37.440;2022-08-25T03:01:15;22.33;;;10.50;;
65998;SDS011;52766;56.008;37.440;2022-08-25T03:03:41;26.42;;;10.35;;
65998;SDS011;52766;56.008;37.440;2022-08-25T03:06:10;24.92;;;11.95;;
65998;SDS011;52766;56.008;37.440;2022-08-25T03:08:37;27.92;;;11.38;;
65998;SDS011;52766;56.008;37.440;2022-08-25T03:11:04;24.23;;;11.40;;
65998;SDS011;52766;56.008;37.440;2022-08-25T03:13:30;24.40;;;11.18;;
65998;SDS011;52766;56.008;37.440;2022-08-25T03:16:00;27.52;;;10.18;;
65998;SDS011;52766;56.008;37.440;2022-08-25T03:18:28;27.02;;;12.18;;
65998;SDS011;52766;56.008;37.440;2022-08-25T03:20:54;30.17;;;13.60;;
65998;SDS011;52766;56.008;37.440;2022-08-25T03:23:20;34.40;;;12.93;;
65998;SDS011;52766;56.008;37.440;2022-08-25T03:25:46;37.15;;;14.05;;
65998;SDS011;52766;56.008;37.440;2022-08-25T03:28:31;32.92;;;13.05;;
65998;SDS011;52766;56.008;37.440;2022-08-25T03:30:58;29.17;;;13.95;;
65998;SDS011;52766;56.008;37.440;2022-08-25T03:33:28;35.47;;;13.25;;
65998;SDS011;52766;56.008;37.440;2022-08-25T03:35:55;35.55;;;14.05;;
65998;SDS011;52766;56.008;37.440;2022-08-25T03:38:22;30.88;;;14.63;;
65998;SDS011;52766;56.008;37.440;2022-08-25T03:40:50;32.13;;;13.90;;
65998;SDS011;52766;56.008;37.440;2022-08-25T03:43:16;29.65;;;13.57;;
65998;SDS011;52766;56.008;37.440;2022-08-25T03:45:43;32.90;;;14.13;;
65998;SDS011;52766;56.008;37.440;2022-08-25T03:48:12;38.65;;;14.55;;
65998;SDS011;52766;56.008;37.440;2022-08-25T03:50:48;30.63;;;14.18;;
65998;SDS011;52766;56.008;37.440;2022-08-25T03:53:15;33.50;;;15.38;;
65998;SDS011;52766;56.008;37.440;2022-08-25T03:55:42;27.40;;;15.48;;
65998;SDS011;52766;56.008;37.440;2022-08-25T03:58:08;27.40;;;13.55;;
65998;SDS011;52766;56.008;37.440;2022-08-25T04:00:34;37.20;;;15.65;;
65998;SDS011;52766;56.008;37.440;2022-08-25T04:03:00;38.40;;;15.82;;
65998;SDS011;52766;56.008;37.440;2022-08-25T04:05:26;28.52;;;15.50;;
65998;SDS011;52766;56.008;37.440;2022-08-25T04:07:52;30.05;;;14.63;;
65998;SDS011;52766;56.008;37.440;2022-08-25T04:10:19;36.92;;;14.90;;
65998;SDS011;52766;56.008;37.440;2022-08-25T04:12:45;37.80;;;15.52;;
65998;SDS011;52766;56.008;37.440;2022-08-25T04:15:13;39.42;;;15.38;;
65998;SDS011;52766;56.008;37.440;2022-08-25T04:17:40;28.83;;;15.80;;
65998;SDS011;52766;56.008;37.440;2022-08-25T04:20:06;36.67;;;16.02;;
65998;SDS011;52766;56.008;37.440;2022-08-25T04:22:33;30.88;;;15.80;;
65998;SDS011;52766;56.008;37.440;2022-08-25T04:25:00;29.33;;;16.85;;
65998;SDS011;52766;56.008;37.440;2022-08-25T04:27:28;38.75;;;18.00;;
65998;SDS011;52766;56.008;37.440;2022-08-25T04:29:54;38.25;;;17.08;;
65998;SDS011;52766;56.008;37.440;2022-08-25T04:32:20;36.47;;;19.90;;
65998;SDS011;52766;56.008;37.440;2022-08-25T04:34:46;43.20;;;18.55;;
65998;SDS011;52766;56.008;37.440;2022-08-25T04:37:14;39.42;;;20.63;;
65998;SDS011;52766;56.008;37.440;2022-08-25T04:39:41;43.00;;;20.13;;
65998;SDS011;52766;56.008;37.440;2022-08-25T04:42:07;37.85;;;18.50;;
65998;SDS011;52766;56.008;37.440;2022-08-25T04:44:33;41.88;;;21.88;;
65998;SDS011;52766;56.008;37.440;2022-08-25T04:46:59;38.70;;;19.80;;
65998;SDS011;52766;56.008;37.440;2022-08-25T04:49:25;33.28;;;21.17;;
65998;SDS011;52766;56.008;37.440;2022-08-25T04:51:52;45.15;;;23.33;;
65998;SDS011;52766;56.008;37.440;2022-08-25T04:54:18;42.20;;;21.63;;
65998;SDS011;52766;56.008;37.440;2022-08-25T04:56:46;44.33;;;22.55;;
65998;SDS011;52766;56.008;37.440;2022-08-25T04:59:14;41.78;;;23.42;;
65998;SDS011;52766;56.008;37.440;2022-08-25T05:01:41;35.88;;;21.15;;
65998;SDS011;52766;56.008;37.440;2022-08-25T05:04:08;43.65;;;23.35;;
65998;SDS011;52766;56.008;37.440;2022-08-25T05:06:36;44.92;;;22.35;;
65998;SDS011;52766;56.008;37.440;2022-08-25T05:09:02;44.50;;;22.45;;
65998;SDS011;52766;56.008;37.440;2022-08-25T05:11:29;45.03;;;25.00;;
65998;SDS011;52766;56.008;37.440;2022-08-25T05:13:55;40.22;;;23.65;;
65998;SDS011;52766;56.008;37.440;2022-08-25T05:16:23;40.97;;;24.13;;
65998;SDS011;52766;56.008;37.440;2022-08-25T05:18:53;40.53;;;20.52;;
65998;SDS011;52766;56.008;37.440;2022-08-25T05:21:51;35.55;;;20.02;;
65998;SDS011;52766;56.008;37.440;2022-08-25T05:24:17;42.10;;;21.83;;
65998;SDS011;52766;56.008;37.440;2022-08-25T05:26:43;38.90;;;21.17;;
65998;SDS011;52766;56.008;37.440;2022-08-25T05:29:10;35.53;;;22.38;;
65998;SDS011;52766;56.008;37.440;2022-08-25T05:31:37;33.13;;;21.88;;
65998;SDS011;52766;56.008;37.440;2022-08-25T05:34:06;43.58;;;23.88;;
65998;SDS011;52766;56.008;37.440;2022-08-25T05:38:59;35.55;;;19.02;;
65998;SDS011;52766;56.008;37.440;2022-08-25T05:41:34;36.80;;;17.35;;
65998;SDS011;52766;56.008;37.440;2022-08-25T05:44:01;30.75;;;17.80;;
65998;SDS011;52766;56.008;37.440;2022-08-25T05:46:27;31.92;;;17.05;;
65998;SDS011;52766;56.008;37.440;2022-08-25T05:48:54;29.02;;;16.83;;
65998;SDS011;52766;56.008;37.440;2022-08-25T05:51:20;26.65;;;14.98;;
65998;SDS011;52766;56.008;37.440;2022-08-25T05:53:47;28.88;;;13.90;;
65998;SDS011;52766;56.008;37.440;2022-08-25T05:56:14;25.08;;;13.57;;
65998;SDS011;52766;56.008;37.440;2022-08-25T05:58:41;22.73;;;14.10;;
65998;SDS011;52766;56.008;37.440;2022-08-25T06:01:18;25.30;;;13.35;;
65998;SDS011;52766;56.008;37.440;2022-08-25T06:04:04;20.60;;;10.75;;
65998;SDS011;52766;56.008;37.440;2022-08-25T06:06:30;21.50;;;11.93;;
65998;SDS011;52766;56.008;37.440;2022-08-25T06:08:56;25.13;;;11.65;;
65998;SDS011;52766;56.008;37.440;2022-08-25T06:11:22;19.85;;;11.77;;
65998;SDS011;52766;56.008;37.440;2022-08-25T06:13:48;21.52;;;10.38;;
65998;SDS011;52766;56.008;37.440;2022-08-25T06:16:14;19.02;;;11.35;;
65998;SDS011;52766;56.008;37.440;2022-08-25T06:18:40;16.15;;;10.57;;
65998;SDS011;52766;56.008;37.440;2022-08-25T06:21:10;21.00;;;11.00;;
65998;SDS011;52766;56.008;37.440;2022-08-25T06:23:38;21.85;;;11.68;;
65998;SDS011;52766;56.008;37.440;2022-08-25T06:26:05;18.70;;;10.40;;
65998;SDS011;52766;56.008;37.440;2022-08-25T06:28:31;23.90;;;11.68;;
65998;SDS011;52766;56.008;37.440;2022-08-25T06:30:57;18.95;;;9.50;;
65998;SDS011;52766;56.008;37.440;2022-08-25T06:33:24;21.38;;;10.30;;
65998;SDS011;52766;56.008;37.440;2022-08-25T06:35:52;17.33;;;9.82;;
65998;SDS011;52766;56.008;37.440;2022-08-25T06:38:21;22.05;;;9.88;;
65998;SDS011;52766;56.008;37.440;2022-08-25T06:40:48;12.90;;;8.55;;
65998;SDS011;52766;56.008;37.440;2022-08-25T06:43:21;17.60;;;9.68;;
65998;SDS011;52766;56.008;37.440;2022-08-25T06:46:06;16.80;;;8.70;;
65998;SDS011;52766;56.008;37.440;2022-08-25T06:48:35;18.27;;;8.05;;
65998;SDS011;52766;56.008;37.440;2022-08-25T06:51:06;14.48;;;8.15;;
65998;SDS011;52766;56.008;37.440;2022-08-25T06:53:33;13.55;;;8.27;;
65998;SDS011;52766;56.008;37.440;2022-08-25T06:55:59;16.00;;;8.85;;
65998;SDS011;52766;56.008;37.440;2022-08-25T06:58:30;12.07;;;7.60;;
65998;SDS011;52766;56.008;37.440;2022-08-25T07:01:19;16.88;;;8.55;;
65998;SDS011;52766;56.008;37.440;2022-08-25T07:03:46;16.25;;;9.77;;
65998;SDS011;52766;56.008;37.440;2022-08-25T07:06:12;10.95;;;8.43;;
65998;SDS011;52766;56.008;37.440;2022-08-25T07:08:39;12.77;;;7.82;;
65998;SDS011;52766;56.008;37.440;2022-08-25T07:11:06;14.60;;;8.93;;
65998;SDS011;52766;56.008;37.440;2022-08-25T07:13:33;17.25;;;8.25;;
65998;SDS011;52766;56.008;37.440;2022-08-25T07:15:59;14.98;;;8.70;;
65998;SDS011;52766;56.008;37.440;2022-08-25T07:18:26;12.07;;;7.45;;
65998;SDS011;52766;56.008;37.440;2022-08-25T07:20:52;11.95;;;7.93;;
65998;SDS011;52766;56.008;37.440;2022-08-25T07:23:18;20.70;;;8.20;;
65998;SDS011;52766;56.008;37.440;2022-08-25T07:25:45;17.52;;;8.55;;
65998;SDS011;52766;56.008;37.440;2022-08-25T07:28:12;15.20;;;8.13;;
65998;SDS011;52766;56.008;37.440;2022-08-25T07:30:39;12.20;;;8.93;;
65998;SDS011;52766;56.008;37.440;2022-08-25T07:33:05;11.15;;;7.00;;
65998;SDS011;52766;56.008;37.440;2022-08-25T07:35:31;12.15;;;8.43;;
65998;SDS011;52766;56.008;37.440;2022-08-25T07:37:58;18.17;;;8.52;;
65998;SDS011;52766;56.008;37.440;2022-08-25T07:40:26;13.82;;;8.02;;
65998;SDS011;52766;56.008;37.440;2022-08-25T07:42:57;13.45;;;7.80;;
65998;SDS011;52766;56.008;37.440;2022-08-25T07:45:26;15.18;;;9.00;;
65998;SDS011;52766;56.008;37.440;2022-08-25T07:47:57;11.13;;;7.72;;
65998;SDS011;52766;56.008;37.440;2022-08-25T07:50:25;12.40;;;8.70;;
65998;SDS011;52766;56.008;37.440;2022-08-25T07:52:51;15.38;;;8.35;;
65998;SDS011;52766;56.008;37.440;2022-08-25T07:55:18;11.35;;;8.07;;
65998;SDS011;52766;56.008;37.440;2022-08-25T07:57:44;11.85;;;8.75;;
65998;SDS011;52766;56.008;37.440;2022-08-25T08:00:12;14.20;;;8.55;;
65998;SDS011;52766;56.008;37.440;2022-08-25T08:02:43;14.57;;;8.60;;
65998;SDS011;52766;56.008;37.440;2022-08-25T08:05:12;15.85;;;8.80;;
65998;SDS011;52766;56.008;37.440;2022-08-25T08:07:38;12.40;;;8.32;;
65998;SDS011;52766;56.008;37.440;2022-08-25T08:10:05;12.38;;;8.27;;
65998;SDS011;52766;56.008;37.440;2022-08-25T08:12:34;14.90;;;8.45;;
65998;SDS011;52766;56.008;37.440;2022-08-25T08:15:00;13.00;;;8.63;;
65998;SDS011;52766;56.008;37.440;2022-08-25T08:17:28;14.40;;;8.30;;
65998;SDS011;52766;56.008;37.440;2022-08-25T08:19:56;11.20;;;7.40;;
65998;SDS011;52766;56.008;37.440;2022-08-25T08:22:24;12.70;;;8.15;;
65998;SDS011;52766;56.008;37.440;2022-08-25T08:24:50;16.10;;;8.07;;
65998;SDS011;52766;56.008;37.440;2022-08-25T08:27:17;16.35;;;8.77;;
65998;SDS011;52766;56.008;37.440;2022-08-25T08:29:43;12.50;;;7.35;;
65998;SDS011;52766;56.008;37.440;2022-08-25T08:32:10;11.52;;;6.47;;
65998;SDS011;52766;56.008;37.440;2022-08-25T08:34:39;10.55;;;7.47;;
65998;SDS011;52766;56.008;37.440;2022-08-25T08:37:06;11.23;;;8.02;;
65998;SDS011;52766;56.008;37.440;2022-08-25T08:39:33;11.77;;;8.45;;
65998;SDS011;52766;56.008;37.440;2022-08-25T08:49:09;14.85;;;7.90;;
65998;SDS011;52766;56.008;37.440;2022-08-25T08:56:23;11.07;;;7.18;;
65998;SDS011;52766;56.008;37.440;2022-08-25T08:58:55;10.23;;;7.35;;
65998;SDS011;52766;56.008;37.440;2022-08-25T09:01:34;11.25;;;6.75;;
65998;SDS011;52766;56.008;37.440;2022-08-25T09:04:08;12.50;;;6.45;;
65998;SDS011;52766;56.008;37.440;2022-08-25T09:06:45;9.57;;;6.07;;
65998;SDS011;52766;56.008;37.440;2022-08-25T09:09:31;8.43;;;6.63;;
65998;SDS011;52766;56.008;37.440;2022-08-25T09:14:55;11.23;;;6.05;;
65998;SDS011;52766;56.008;37.440;2022-08-25T09:23:14;8.65;;;6.00;;
65998;SDS011;52766;56.008;37.440;2022-08-25T09:25:59;9.35;;;6.35;;
65998;SDS011;52766;56.008;37.440;2022-08-25T09:28:36;10.00;;;6.30;;
65998;SDS011;52766;56.008;37.440;2022-08-25T09:31:15;12.32;;;5.97;;
65998;SDS011;52766;56.008;37.440;2022-08-25T09:33:50;6.88;;;5.72;;
65998;SDS011;52766;56.008;37.440;2022-08-25T09:36:18;8.93;;;6.50;;
65998;SDS011;52766;56.008;37.440;2022-08-25T09:38:44;8.82;;;6.50;;
65998;SDS011;52766;56.008;37.440;2022-08-25T09:41:14;11.77;;;6.50;;
65998;SDS011;52766;56.008;37.440;2022-08-25T09:43:43;11.85;;;6.90;;
65998;SDS011;52766;56.008;37.440;2022-08-25T09:46:24;10.50;;;6.13;;
65998;SDS011;52766;56.008;37.440;2022-08-25T09:48:53;9.77;;;6.75;;
65998;SDS011;52766;56.008;37.440;2022-08-25T09:51:34;10.02;;;6.63;;
65998;SDS011;52766;56.008;37.440;2022-08-25T09:56:31;13.23;;;7.80;;
65998;SDS011;52766;56.008;37.440;2022-08-25T10:01:50;10.93;;;7.10;;
65998;SDS011;52766;56.008;37.440;2022-08-25T10:04:28;9.85;;;6.85;;
65998;SDS011;52766;56.008;37.440;2022-08-25T10:07:03;9.30;;;6.50;;
65998;SDS011;52766;56.008;37.440;2022-08-25T10:09:40;10.20;;;6.72;;
65998;SDS011;52766;56.008;37.440;2022-08-25T10:12:17;8.45;;;6.18;;
65998;SDS011;52766;56.008;37.440;2022-08-25T10:14:46;10.25;;;6.22;;
65998;SDS011;52766;56.008;37.440;2022-08-25T10:17:32;9.27;;;6.47;;
65998;SDS011;52766;56.008;37.440;2022-08-25T10:20:13;8.88;;;6.30;;
65998;SDS011;52766;56.008;37.440;2022-08-25T10:22:42;10.15;;;6.60;;
65998;SDS011;52766;56.008;37.440;2022-08-25T10:25:10;9.95;;;6.93;;
65998;SDS011;52766;56.008;37.440;2022-08-25T10:33:21;7.50;;;6.47;;
65998;SDS011;52766;56.008;37.440;2022-08-25T10:36:12;15.00;;;7.30;;
65998;SDS011;52766;56.008;37.440;2022-08-25T10:44:28;13.85;;;6.13;;
65998;SDS011;52766;56.008;37.440;2022-08-25T10:50:29;9.77;;;6.65;;
65998;SDS011;52766;56.008;37.440;2022-08-25T10:53:17;10.38;;;6.80;;
65998;SDS011;52766;56.008;37.440;2022-08-25T11:01:22;13.65;;;7.78;;
65998;SDS011;52766;56.008;37.440;2022-08-25T11:03:57;11.45;;;7.05;;
65998;SDS011;52766;56.008;37.440;2022-08-25T11:09:10;10.57;;;7.75;;
65998;SDS011;52766;56.008;37.440;2022-08-25T11:12:01;10.98;;;6.93;;
65998;SDS011;52766;56.008;37.440;2022-08-25T11:14:52;25.05;;;19.27;;
65998;SDS011;52766;56.008;37.440;2022-08-25T11:17:27;12.43;;;7.53;;
65998;SDS011;52766;56.008;37.440;2022-08-25T11:20:22;11.82;;;8.55;;
65998;SDS011;52766;56.008;37.440;2022-08-25T11:25:43;13.35;;;7.75;;
65998;SDS011;52766;56.008;37.440;2022-08-25T11:31:18;10.48;;;6.80;;
65998;SDS011;52766;56.008;37.440;2022-08-25T11:33:52;9.35;;;7.50;;
65998;SDS011;52766;56.008;37.440;2022-08-25T11:36:29;11.27;;;7.53;;
65998;SDS011;52766;56.008;37.440;2022-08-25T11:47:20;9.50;;;7.00;;
65998;SDS011;52766;56.008;37.440;2022-08-25T11:50:30;9.65;;;7.28;;
65998;SDS011;52766;56.008;37.440;2022-08-25T11:53:18;12.85;;;9.15;;
65998;SDS011;52766;56.008;37.440;2022-08-25T11:56:00;14.45;;;7.72;;
65998;SDS011;52766;56.008;37.440;2022-08-25T12:01:04;11.75;;;8.10;;
65998;SDS011;52766;56.008;37.440;2022-08-25T12:03:51;10.90;;;7.80;;
65998;SDS011;52766;56.008;37.440;2022-08-25T12:07:00;8.77;;;6.93;;
65998;SDS011;52766;56.008;37.440;2022-08-25T12:09:30;10.57;;;7.05;;
65998;SDS011;52766;56.008;37.440;2022-08-25T12:36:55;10.82;;;8.35;;
65998;SDS011;52766;56.008;37.440;2022-08-25T12:39:27;13.57;;;7.50;;
65998;SDS011;52766;56.008;37.440;2022-08-25T12:41:57;11.18;;;8.07;;
65998;SDS011;52766;56.008;37.440;2022-08-25T12:44:36;12.05;;;8.30;;
65998;SDS011;52766;56.008;37.440;2022-08-25T12:49:52;9.65;;;8.15;;
65998;SDS011;52766;56.008;37.440;2022-08-25T12:52:39;10.88;;;8.52;;
65998;SDS011;52766;56.008;37.440;2022-08-25T12:55:05;12.07;;;8.27;;
65998;SDS011;52766;56.008;37.440;2022-08-25T13:08:48;14.60;;;8.43;;
65998;SDS011;52766;56.008;37.440;2022-08-25T13:11:40;13.18;;;9.43;;
65998;SDS011;52766;56.008;37.440;2022-08-25T13:14:36;13.48;;;9.38;;
65998;SDS011;52766;56.008;37.440;2022-08-25T13:17:05;11.23;;;8.80;;
65998;SDS011;52766;56.008;37.440;2022-08-25T13:19:33;11.93;;;9.90;;
65998;SDS011;52766;56.008;37.440;2022-08-25T13:22:00;15.60;;;9.50;;
65998;SDS011;52766;56.008;37.440;2022-08-25T13:24:31;13.88;;;9.70;;
65998;SDS011;52766;56.008;37.440;2022-08-25T13:27:00;10.60;;;9.43;;
65998;SDS011;52766;56.008;37.440;2022-08-25T13:29:30;11.00;;;9.70;;
65998;SDS011;52766;56.008;37.440;2022-08-25T13:32:00;13.45;;;9.32;;
65998;SDS011;52766;56.008;37.440;2022-08-25T13:34:28;13.38;;;9.38;;
65998;SDS011;52766;56.008;37.440;2022-08-25T13:37:14;13.13;;;8.85;;
65998;SDS011;52766;56.008;37.440;2022-08-25T13:42:39;9.00;;;7.53;;
65998;SDS011;52766;56.008;37.440;2022-08-25T13:45:06;11.20;;;7.65;;
65998;SDS011;52766;56.008;37.440;2022-08-25T13:47:34;10.55;;;8.05;;
65998;SDS011;52766;56.008;37.440;2022-08-25T13:53:06;13.23;;;7.88;;
65998;SDS011;52766;56.008;37.440;2022-08-25T13:55:47;14.20;;;8.40;;
65998;SDS011;52766;56.008;37.440;2022-08-25T13:58:15;14.77;;;8.70;;
65998;SDS011;52766;56.008;37.440;2022-08-25T14:00:44;10.07;;;7.95;;
65998;SDS011;52766;56.008;37.440;2022-08-25T14:03:38;12.15;;;8.65;;
65998;SDS011;52766;56.008;37.440;2022-08-25T14:06:07;9.55;;;7.53;;
65998;SDS011;52766;56.008;37.440;2022-08-25T14:08:38;9.57;;;7.97;;
65998;SDS011;52766;56.008;37.440;2022-08-25T14:11:09;14.77;;;8.00;;
65998;SDS011;52766;56.008;37.440;2022-08-25T14:13:38;9.95;;;7.30;;
65998;SDS011;52766;56.008;37.440;2022-08-25T14:16:05;12.95;;;8.10;;
65998;SDS011;52766;56.008;37.440;2022-08-25T14:18:33;11.05;;;7.70;;
65998;SDS011;52766;56.008;37.440;2022-08-25T14:20:59;11.45;;;7.32;;
65998;SDS011;52766;56.008;37.440;2022-08-25T14:23:34;13.40;;;8.20;;
65998;SDS011;52766;56.008;37.440;2022-08-25T14:26:01;10.85;;;7.57;;
65998;SDS011;52766;56.008;37.440;2022-08-25T14:28:28;11.25;;;8.77;;
65998;SDS011;52766;56.008;37.440;2022-08-25T14:31:01;10.52;;;8.05;;
65998;SDS011;52766;56.008;37.440;2022-08-25T14:33:32;13.90;;;8.32;;
65998;SDS011;52766;56.008;37.440;2022-08-25T14:36:01;10.35;;;8.43;;
65998;SDS011;52766;56.008;37.440;2022-08-25T14:38:33;12.82;;;8.10;;
65998;SDS011;52766;56.008;37.440;2022-08-25T14:40:59;9.63;;;8.20;;
65998;SDS011;52766;56.008;37.440;2022-08-25T14:43:26;9.10;;;7.88;;
65998;SDS011;52766;56.008;37.440;2022-08-25T14:45:55;12.25;;;7.88;;
65998;SDS011;52766;56.008;37.440;2022-08-25T14:48:25;8.88;;;7.93;;
65998;SDS011;52766;56.008;37.440;2022-08-25T14:50:56;14.30;;;8.90;;
65998;SDS011;52766;56.008;37.440;2022-08-25T14:53:23;10.80;;;8.20;;
65998;SDS011;52766;56.008;37.440;2022-08-25T14:55:50;10.35;;;8.15;;
65998;SDS011;52766;56.008;37.440;2022-08-25T15:00:48;13.30;;;8.95;;
65998;SDS011;52766;56.008;37.440;2022-08-25T15:03:20;12.73;;;8.80;;
65998;SDS011;52766;56.008;37.440;2022-08-25T15:05:56;13.85;;;8.63;;
65998;SDS011;52766;56.008;37.440;2022-08-25T15:08:25;11.68;;;7.95;;
65998;SDS011;52766;56.008;37.440;2022-08-25T15:11:11;16.83;;;11.50;;
65998;SDS011;52766;56.008;37.440;2022-08-25T15:13:39;11.77;;;8.45;;
65998;SDS011;52766;56.008;37.440;2022-08-25T15:16:06;11.88;;;9.60;;
65998;SDS011;52766;56.008;37.440;2022-08-25T15:18:33;14.65;;;10.50;;
65998;SDS011;52766;56.008;37.440;2022-08-25T15:21:00;15.75;;;12.65;;
65998;SDS011;52766;56.008;37.440;2022-08-25T15:23:27;14.75;;;8.52;;
65998;SDS011;52766;56.008;37.440;2022-08-25T15:25:54;12.18;;;8.88;;
65998;SDS011;52766;56.008;37.440;2022-08-25T15:28:21;13.70;;;8.70;;
65998;SDS011;52766;56.008;37.440;2022-08-25T15:30:48;35.08;;;27.13;;
65998;SDS011;52766;56.008;37.440;2022-08-25T15:33:18;16.35;;;13.18;;
65998;SDS011;52766;56.008;37.440;2022-08-25T15:35:48;13.65;;;10.45;;
65998;SDS011;52766;56.008;37.440;2022-08-25T15:38:14;19.65;;;15.70;;
65998;SDS011;52766;56.008;37.440;2022-08-25T15:40:40;21.63;;;16.63;;
65998;SDS011;52766;56.008;37.440;2022-08-25T15:43:07;14.90;;;10.25;;
65998;SDS011;52766;56.008;37.440;2022-08-25T15:45:34;15.52;;;9.98;;
65998;SDS011;52766;56.008;37.440;2022-08-25T15:48:01;13.25;;;8.82;;
65998;SDS011;52766;56.008;37.440;2022-08-25T15:50:31;11.55;;;8.98;;
65998;SDS011;52766;56.008;37.440;2022-08-25T15:52:57;13.32;;;9.63;;
65998;SDS011;52766;56.008;37.440;2022-08-25T15:55:23;11.85;;;8.85;;
65998;SDS011;52766;56.008;37.440;2022-08-25T15:57:52;13.10;;;8.77;;
65998;SDS011;52766;56.008;37.440;2022-08-25T16:00:18;11.60;;;8.25;;
65998;SDS011;52766;56.008;37.440;2022-08-25T16:02:44;13.18;;;9.45;;
65998;SDS011;52766;56.008;37.440;2022-08-25T16:05:11;16.77;;;10.45;;
65998;SDS011;52766;56.008;37.440;2022-08-25T16:07:38;19.30;;;10.70;;
65998;SDS011;52766;56.008;37.440;2022-08-25T16:10:04;31.75;;;26.02;;
65998;SDS011;52766;56.008;37.440;2022-08-25T16:12:32;18.20;;;13.57;;
65998;SDS011;52766;56.008;37.440;2022-08-25T16:14:59;17.83;;;10.25;;
65998;SDS011;52766;56.008;37.440;2022-08-25T16:17:25;11.85;;;9.10;;
65998;SDS011;52766;56.008;37.440;2022-08-25T16:19:51;14.93;;;9.80;;
65998;SDS011;52766;56.008;37.440;2022-08-25T16:22:17;21.15;;;11.65;;
65998;SDS011;52766;56.008;37.440;2022-08-25T16:24:44;20.88;;;10.95;;
65998;SDS011;52766;56.008;37.440;2022-08-25T16:27:10;38.92;;;19.75;;
65998;SDS011;52766;56.008;37.440;2022-08-25T16:29:39;19.77;;;11.77;;